Flight Track Log - Related Links

Times and Time Zones

All times are in EST time to prevent confusion due to time zone crossing. See the EJA929 flight status page for this flight to view local times or setup timezone preferences in your user account.

Time Position Orientation Groundspeed Altitude Reporting Facility
EST Latitude Longitude Course Direction KTS MPH feet Rate Location/Type
Wed 02:26:40 PM 37.6000 -122.3167 76° East 202 232 3,000  Level Northern Cal TRACON
Wed 02:27:40 PM 37.6167 -122.2333 76° East 252 290 5,900 2,750 Climbing Northern Cal TRACON
Wed 02:28:40 PM 37.6833 -122.1833 31° Northeast 294 338 8,500 2,207 Climbing Northern Cal TRACON
Wed 02:30:34 PM 37.8278 -122.0631 33° Northeast 333 383 12,300 1,807 Climbing Oakland Center
Wed 02:31:36 PM 37.9175 -121.9864 34° Northeast 382 440 13,800 1,561 Climbing Oakland Center
Wed 02:32:37 PM 38.0128 -121.9103 32° Northeast 403 464 15,500 1,869 Climbing Oakland Center
Wed 02:33:38 PM 38.1139 -121.8261 33° Northeast 415 478 17,600 1,854 Climbing Oakland Center
Wed 02:34:40 PM 38.2067 -121.7500 33° Northeast 417 480 19,300 1,561 Climbing Oakland Center
Wed 02:35:41 PM 38.3061 -121.6664 33° Northeast 427 491 20,800 1,770 Climbing Oakland Center
Wed 02:36:42 PM 38.4092 -121.5803 33° Northeast 441 507 22,900 2,164 Climbing Oakland Center
Wed 02:37:43 PM 38.5081 -121.4425 47° Northeast 443 510 25,200 1,902 Climbing Oakland Center
Wed 02:38:45 PM 38.5839 -121.3136 53° Northeast 450 518 26,800 1,561 Climbing Oakland Center
Wed 02:39:46 PM 38.6603 -121.1778 54° Northeast 465 535 28,400 1,574 Climbing Oakland Center
Wed 02:40:47 PM 38.7372 -121.0456 53° Northeast 478 550 30,000 1,463 Climbing Oakland Center
Wed 02:41:49 PM 38.8186 -120.9044 53° Northeast 489 563 31,400 1,512 Climbing Oakland Center
Wed 02:42:50 PM 38.9008 -120.7625 53° Northeast 495 570 33,100 1,869 Climbing Oakland Center
Wed 02:43:51 PM 38.9839 -120.6192 53° Northeast 499 574 35,200 1,317 Climbing Oakland Center
Wed 02:44:53 PM 39.0667 -120.4742 54° Northeast 503 579 35,800 780 Climbing Oakland Center
Wed 02:45:54 PM 39.1703 -120.2925 54° Northeast 523 602 36,800 590 Climbing Oakland Center
Wed 02:46:55 PM 39.2586 -120.1383 53° Northeast 532 612 37,000 98 Climbing Oakland Center
Wed 02:47:57 PM 39.3378 -119.9989 54° Northeast 557 641 37,000  Level Oakland Center
Wed 02:48:58 PM 39.4489 -119.8025 54° Northeast 585 673 37,000  Level Oakland Center
Wed 02:49:59 PM 39.5414 -119.6364 54° Northeast 565 650 37,000  Level Oakland Center
Wed 02:51:01 PM 39.6317 -119.4742 54° Northeast 553 636 37,000  Level Oakland Center
Wed 02:52:02 PM 39.7253 -119.3067 54° Northeast 568 654 37,000  Level Oakland Center
Wed 02:53:03 PM 39.8169 -119.1419 54° Northeast 561 646 37,000  Level Oakland Center
Wed 02:54:05 PM 39.8956 -118.9631 60° Northeast 566 651 37,000  Level Oakland Center
Wed 02:55:06 PM 39.9553 -118.7686 68° East 574 661 37,000 49 Level Oakland Center
Wed 02:56:07 PM 40.0150 -118.5750 68° East 572 658 37,100 488 Climbing Oakland Center
Wed 02:57:09 PM 40.0736 -118.3842 68° East 567 652 38,000 927 Climbing Oakland Center
Wed 02:58:10 PM 40.1308 -118.1975 68° East 556 640 39,000 492 Climbing Oakland Center
Wed 02:59:11 PM 40.1867 -118.0128 68° East 547 629 39,000  Level Oakland Center
Wed 03:00:13 PM 40.2522 -117.7978 68° East 557 641 39,000  Level Oakland Center
Wed 03:01:14 PM 40.3075 -117.6156 68° East 561 646 39,000  Level Oakland Center
Wed 03:02:15 PM 40.3622 -117.4350 68° East 558 642 39,000  Level Oakland Center
Wed 03:03:16 PM 40.4253 -117.2242 68° East 554 638 39,000  Level Oakland Center
Wed 03:04:18 PM 40.4794 -117.0397 69° East 559 643 39,000  Level Oakland Center
Wed 03:05:19 PM 40.5328 -116.8531 69° East 556 640 39,000  Level Oakland Center
Wed 03:06:20 PM 40.5958 -116.6389 69° East 553 636 39,000  Level Oakland Center
Wed 03:07:22 PM 40.6481 -116.4553 69° East 556 640 39,000  Level Oakland Center
Wed 03:08:47 PM 40.7278 -116.1786 69° East 559 643 39,000  Level Salt Lake Center
Wed 03:09:48 PM 40.7808 -115.9956 69° East 559 643 39,000  Level Salt Lake Center
Wed 03:10:50 PM 40.8406 -115.7808 70° East 558 642 39,000  Level Salt Lake Center
Wed 03:11:51 PM 40.8906 -115.5947 70° East 560 644 39,000  Level Salt Lake Center
Wed 03:12:53 PM 40.9428 -115.4106 69° East 560 644 39,000  Level Salt Lake Center
Wed 03:13:54 PM 40.9989 -115.1956 71° East 556 640 39,000 244 Level Salt Lake Center
Wed 03:14:56 PM 41.0522 -115.0147 69° East 553 636 39,500 629 Climbing Salt Lake Center
Wed 03:15:58 PM 41.1117 -114.8056 69° East 548 631 40,300 732 Climbing Salt Lake Center
Wed 03:16:59 PM 41.1597 -114.6267 70° East 543 625 41,000 341 Climbing Salt Lake Center
Wed 03:18:01 PM 41.2069 -114.4478 71° East 538 619 41,000  Level Salt Lake Center
Wed 03:19:02 PM 41.2625 -114.2353 71° East 542 624 41,000  Level Salt Lake Center
Wed 03:20:04 PM 41.3108 -114.0506 71° East 548 631 41,000  Level Salt Lake Center
Wed 03:21:06 PM 41.3656 -113.8319 71° East 553 636 41,000  Level Salt Lake Center
Wed 03:22:07 PM 41.3903 -113.6381 80° East 553 636 41,000  Level Salt Lake Center
Wed 03:23:09 PM 41.3914 -113.4147 90° East 565 650 41,000  Level Salt Lake Center
Wed 03:24:10 PM 41.4017 -113.2156 86° East 565 650 41,000  Level Salt Lake Center
Wed 03:25:12 PM 41.4164 -112.9775 85° East 566 651 41,000  Level Salt Lake Center
Wed 03:26:14 PM 41.4297 -112.7697 85° East 565 650 41,000  Level Salt Lake Center
Wed 03:27:15 PM 41.4422 -112.5475 86° East 561 646 41,000  Level Salt Lake Center
Wed 03:28:17 PM 41.4542 -112.3406 86° East 560 644 41,000  Level Salt Lake Center
Wed 03:29:19 PM 41.4656 -112.1325 86° East 563 648 41,000  Level Salt Lake Center
Wed 03:30:20 PM 41.4778 -111.9100 86° East 559 643 41,000  Level Salt Lake Center
Wed 03:31:22 PM 41.4878 -111.7036 86° East 559 643 41,000  Level Salt Lake Center
Wed 03:32:23 PM 41.4983 -111.4972 86° East 559 643 41,000  Level Salt Lake Center
Wed 03:33:25 PM 41.5072 -111.2867 87° East 560 644 41,000  Level Salt Lake Center
Wed 03:34:27 PM 41.5178 -111.0689 86° East 559 643 41,000  Level Salt Lake Center
Wed 03:35:28 PM 41.5264 -110.8708 87° East 559 643 41,000  Level Salt Lake Center
Wed 03:36:30 PM 41.5364 -110.6400 87° East 559 643 41,000  Level Salt Lake Center
Wed 03:37:31 PM 41.5433 -110.4417 87° East 560 644 41,000  Level Salt Lake Center
Wed 03:38:33 PM 41.5506 -110.2425 87° East 560 644 41,000  Level Salt Lake Center
Wed 03:39:34 PM 41.5592 -110.0117 87° East 559 643 41,000  Level Salt Lake Center
Wed 03:40:36 PM 41.5658 -109.8117 87° East 561 646 41,000  Level Salt Lake Center
Wed 03:41:38 PM 41.5733 -109.5794 87° East 561 646 41,000  Level Salt Lake Center
Wed 03:42:39 PM 41.5797 -109.3800 87° East 559 643 41,000  Level Salt Lake Center
Wed 03:43:41 PM 41.5853 -109.1783 88° East 559 643 41,000  Level Salt Lake Center
Wed 03:44:43 PM 41.5953 -108.9419 87° East 559 643 41,000  Level Salt Lake Center
Wed 03:45:44 PM 41.6111 -108.7422 84° East 559 643 41,000  Level Salt Lake Center
Wed 03:46:46 PM 41.6267 -108.5444 84° East 558 642 41,000  Level Salt Lake Center
Wed 03:47:48 PM 41.6431 -108.3136 84° East 558 642 41,000  Level Salt Lake Center
Wed 03:48:49 PM 41.6561 -108.1153 85° East 559 643 41,000  Level Salt Lake Center
Wed 03:49:51 PM 41.6742 -107.8839 84° East 560 644 41,000  Level Salt Lake Center
Wed 03:50:53 PM 41.6869 -107.6867 85° East 558 642 41,000  Level Salt Lake Center
Wed 03:51:54 PM 41.7033 -107.4536 85° East 562 647 41,000  Level Salt Lake Center
Wed 03:52:56 PM 41.7153 -107.2553 85° East 560 644 41,000  Level Salt Lake Center
Wed 03:53:57 PM 41.7286 -107.0567 85° East 559 643 41,000  Level Salt Lake Center
Wed 03:54:59 PM 41.7411 -106.8228 86° East 563 648 41,000  Level Salt Lake Center
Wed 03:56:01 PM 41.7531 -106.6283 85° East 560 644 41,000  Level Salt Lake Center
Wed 03:57:02 PM 41.7656 -106.3950 86° East 563 648 41,000  Level Salt Lake Center
Wed 03:58:04 PM 41.7775 -106.1947 85° East 564 649 41,000  Level Salt Lake Center
Wed 03:59:29 PM 41.7942 -105.8933 86° East 565 650 41,000  Level Denver Center
Wed 04:00:31 PM 41.8050 -105.6597 86° East 565 650 41,000  Level Denver Center
Wed 04:01:33 PM 41.8158 -105.4600 86° East 564 649 41,000  Level Denver Center
Wed 04:02:35 PM 41.8264 -105.2256 86° East 566 651 41,000  Level Denver Center
Wed 04:03:37 PM 41.8350 -105.0272 87° East 562 647 41,000  Level Denver Center
Wed 04:04:39 PM 41.8436 -104.8247 87° East 567 652 41,000  Level Denver Center
Wed 04:05:40 PM 41.8533 -104.5897 87° East 569 655 41,000  Level Denver Center
Wed 04:06:42 PM 41.8614 -104.3886 87° East 569 655 41,000  Level Denver Center
Wed 04:07:44 PM 41.8700 -104.1525 87° East 571 657 41,000  Level Denver Center
Wed 04:08:46 PM 41.8769 -103.9492 87° East 573 659 41,000  Level Denver Center
Wed 04:09:48 PM 41.8858 -103.7122 87° East 572 658 41,000  Level Denver Center
Wed 04:10:50 PM 41.8942 -103.5086 87° East 573 659 41,000  Level Denver Center
Wed 04:11:52 PM 41.9217 -103.2775 81° East 567 652 41,000  Level Denver Center
Wed 04:12:54 PM 41.9497 -103.0797 79° East 566 651 41,000  Level Denver Center
Wed 04:13:56 PM 41.9806 -102.8506 80° East 562 647 41,000  Level Denver Center
Wed 04:14:58 PM 42.0078 -102.6528 79° East 562 647 41,000  Level Denver Center
Wed 04:16:00 PM 42.0386 -102.4211 80° East 565 650 41,000  Level Denver Center
Wed 04:17:02 PM 42.0656 -102.2203 80° East 569 655 41,000  Level Denver Center
Wed 04:18:04 PM 42.0958 -101.9925 80° East 569 655 41,000  Level Denver Center
Wed 04:19:06 PM 42.1200 -101.7942 81° East 564 649 41,000  Level Denver Center
Wed 04:20:08 PM 42.1500 -101.5594 80° East 567 652 41,000  Level Denver Center
Wed 04:21:10 PM 42.1744 -101.3603 81° East 564 649 41,000  Level Denver Center
Wed 04:22:12 PM 42.2033 -101.1272 80° East 564 649 41,000  Level Denver Center
Wed 04:23:14 PM 42.2272 -100.9258 81° East 565 650 41,000  Level Denver Center
Wed 04:24:16 PM 42.2544 -100.6911 81° East 566 651 41,000  Level Denver Center
Wed 04:25:18 PM 42.2781 -100.4900 81° East 567 652 41,000  Level Denver Center
Wed 04:26:13 PM 42.2986 -100.3075 81° East 566 651 41,000  Level Minneapolis Center
Wed 04:27:15 PM 42.3225 -100.0958 81° East 566 651 41,000  Level Minneapolis Center
Wed 04:28:17 PM 42.3461 -99.8817 81° East 567 652 41,000  Level Minneapolis Center
Wed 04:29:27 PM 42.3731 -99.6231 82° East 575 662 41,000  Level Denver Center
Wed 04:30:21 PM 42.3964 -99.4100 81° East 571 657 41,000  Level Minneapolis Center
Wed 04:31:23 PM 42.4189 -99.1978 82° East 572 658 41,000  Level Minneapolis Center
Wed 04:32:25 PM 42.4400 -98.9842 82° East 572 658 41,000  Level Minneapolis Center
Wed 04:33:26 PM 42.4628 -98.7700 82° East 572 658 41,000  Level Minneapolis Center
Wed 04:34:28 PM 42.4778 -98.5544 85° East 572 658 41,000  Level Minneapolis Center
Wed 04:35:30 PM 42.4875 -98.3375 86° East 572 658 41,000  Level Minneapolis Center
Wed 04:36:32 PM 42.4975 -98.1214 86° East 573 659 41,000  Level Minneapolis Center
Wed 04:37:34 PM 42.5072 -97.9047 86° East 573 659 41,000  Level Minneapolis Center
Wed 04:38:36 PM 42.5178 -97.6539 87° East 573 659 41,000  Level Minneapolis Center
Wed 04:39:38 PM 42.5272 -97.4369 87° East 574 661 41,000  Level Minneapolis Center
Wed 04:40:40 PM 42.5350 -97.2225 87° East 574 661 41,000  Level Minneapolis Center
Wed 04:41:42 PM 42.5431 -97.0050 87° East 574 661 41,000  Level Minneapolis Center
Wed 04:42:44 PM 42.5522 -96.7886 87° East 574 661 41,000  Level Minneapolis Center
Wed 04:43:45 PM 42.5592 -96.5731 87° East 574 661 41,000  Level Minneapolis Center
Wed 04:44:47 PM 42.5664 -96.3150 88° East 571 657 41,000  Level Minneapolis Center
Wed 04:45:50 PM 42.5736 -96.0994 87° East 572 658 41,000  Level Minneapolis Center
Wed 04:46:52 PM 42.5789 -95.8817 88° East 572 658 41,000  Level Minneapolis Center
Wed 04:47:54 PM 42.5850 -95.6667 88° East 572 658 41,000  Level Minneapolis Center
Wed 04:48:56 PM 42.5897 -95.4497 88° East 572 658 41,000  Level Minneapolis Center
Wed 04:49:58 PM 42.5956 -95.2339 88° East 572 658 41,000  Level Minneapolis Center
Wed 04:52:02 PM 42.6047 -94.7569 88° East 572 658 41,000  Level Minneapolis Center
Wed 04:53:04 PM 42.6078 -94.5397 89° East 572 658 41,000  Level Minneapolis Center
Wed 04:54:06 PM 42.6106 -94.3219 89° East 574 661 41,000  Level Minneapolis Center
Wed 04:55:08 PM 42.6028 -94.1044 93° East 577 664 41,000  Level Minneapolis Center
Wed 04:56:10 PM 42.5917 -93.8858 94° East 580 667 41,000  Level Minneapolis Center
Wed 04:57:12 PM 42.5814 -93.6686 94° East 581 669 41,000  Level Minneapolis Center
Wed 04:58:14 PM 42.5686 -93.4069 94° East 580 667 41,000  Level Minneapolis Center
Wed 04:59:17 PM 42.5578 -93.1892 94° East 580 667 41,000  Level Minneapolis Center
Wed 04:59:57 PM 42.5506 -93.0594 94° East 580 667 41,000  Level Chicago Center
Wed 05:00:59 PM 42.5375 -92.8403 95° East 583 671 41,000  Level Chicago Center
Wed 05:02:01 PM 42.5219 -92.5806 95° East 583 671 41,000  Level Chicago Center
Wed 05:03:03 PM 42.5111 -92.3636 94° East 582 670 41,000  Level Chicago Center
Wed 05:04:05 PM 42.4983 -92.1486 95° East 582 670 41,000  Level Chicago Center
Wed 05:05:07 PM 42.4856 -91.9336 95° East 581 669 41,000  Level Chicago Center
Wed 05:06:09 PM 42.4694 -91.6794 95° East 578 665 41,000  Level Chicago Center
Wed 05:07:12 PM 42.4550 -91.4672 95° East 578 665 41,000  Level Chicago Center
Wed 05:08:14 PM 42.4403 -91.2572 95° East 571 657 41,000  Level Chicago Center
Wed 05:09:16 PM 42.4233 -91.0414 96° East 581 669 41,000  Level Chicago Center
Wed 05:10:18 PM 42.4078 -90.8258 96° East 581 669 41,000  Level Chicago Center
Wed 05:11:20 PM 42.3900 -90.5658 95° East 583 671 41,000  Level Chicago Center
Wed 05:12:22 PM 42.3792 -90.3475 94° East 586 674 41,000  Level Chicago Center
Wed 05:13:24 PM 42.3675 -90.1303 94° East 584 672 41,000  Level Chicago Center
Wed 05:14:26 PM 42.3550 -89.9114 94° East 586 674 41,000  Level Chicago Center
Wed 05:15:28 PM 42.3397 -89.6558 95° East 584 672 41,000  Level Chicago Center
Wed 05:16:30 PM 42.3256 -89.4347 95° East 590 679 41,000  Level Chicago Center
Wed 05:17:32 PM 42.3117 -89.2169 95° East 586 674 41,000  Level Chicago Center
Wed 05:18:34 PM 42.2972 -89.0006 95° East 584 672 41,000  Level Chicago Center
Wed 05:19:36 PM 42.2811 -88.7664 95° East 586 674 41,000  Level Chicago Center
Wed 05:20:38 PM 42.2656 -88.5469 95° East 587 676 41,000  Level Chicago Center
Wed 05:21:41 PM 42.2497 -88.3269 95° East 588 677 41,000  Level Chicago Center
Wed 05:22:43 PM 42.2331 -88.1061 96° East 587 676 41,000  Level Chicago Center
Wed 05:23:45 PM 42.2144 -87.8408 95° East 590 679 41,000  Level Chicago Center
Wed 05:24:47 PM 42.2064 -87.6211 93° East 589 678 41,000  Level Chicago Center
Wed 05:25:49 PM 42.2072 -87.4017 90° East 585 673 41,000  Level Chicago Center
Wed 05:26:51 PM 42.2086 -87.1819 89° East 584 672 41,000  Level Chicago Center
Wed 05:27:53 PM 42.2086 -86.9611 90° East 592 681 41,000  Level Chicago Center
Wed 05:28:55 PM 42.2061 -86.7422 91° East 587 676 41,000  Level Chicago Center
Wed 05:29:57 PM 42.2097 -86.4989 89° East 580 667 41,000  Level Chicago Center
Wed 05:30:59 PM 42.2086 -86.2808 90° East 581 669 41,000  Level Chicago Center
Wed 05:32:02 PM 42.2058 -86.0642 91° East 579 666 41,000  Level Chicago Center
Wed 05:33:04 PM 42.2044 -85.8169 90° East 590 679 41,000  Level Chicago Center
Wed 05:34:06 PM 42.2028 -85.6008 91° East 584 672 41,000  Level Chicago Center
Wed 05:35:08 PM 42.2003 -85.3819 91° East 586 674 41,000  Level Chicago Center
Wed 05:36:10 PM 42.1989 -85.1622 90° East 589 678 41,000  Level Chicago Center
Wed 05:37:12 PM 42.1958 -84.8964 91° East 595 685 41,000  Level Chicago Center
Wed 05:38:14 PM 42.1925 -84.6756 91° East 593 682 41,000  Level Chicago Center
Wed 05:39:16 PM 42.1875 -84.4572 92° East 589 678 41,000  Level Chicago Center
Wed 05:40:18 PM 42.1836 -84.2383 91° East 588 677 41,000  Level Chicago Center
Wed 05:41:20 PM 42.1786 -84.0189 92° East 588 677 41,000  Level Chicago Center
Wed 05:42:23 PM 42.1731 -83.8006 92° East 586 674 41,000  Level Chicago Center
Wed 05:43:50 PM 42.1622 -83.4392 92° East 584 672 41,000  Level Cleveland Center
Wed 05:44:52 PM 42.1556 -83.2186 92° East 581 669 41,000  Level Cleveland Center
Wed 05:45:54 PM 42.1525 -83.0014 91° East 582 670 41,000  Level Cleveland Center
Wed 05:46:56 PM 42.1422 -82.7858 94° East 582 670 41,000  Level Cleveland Center
Wed 05:47:58 PM 42.1336 -82.5678 93° East 582 670 41,000  Level Cleveland Center
Wed 05:49:01 PM 42.1250 -82.3519 93° East 581 669 41,000  Level Cleveland Center
Wed 05:50:03 PM 42.1167 -82.1169 93° East 581 669 41,000  Level Cleveland Center
Wed 05:51:05 PM 42.1072 -81.8961 93° East 582 670 41,000  Level Cleveland Center
Wed 05:52:07 PM 42.0964 -81.6372 93° East 583 671 41,000  Level Cleveland Center
Wed 05:53:09 PM 42.0853 -81.4164 94° East 583 671 41,000  Level Cleveland Center
Wed 05:54:11 PM 42.0758 -81.1944 93° East 584 672 41,000  Level Cleveland Center
Wed 05:55:13 PM 42.0639 -80.9731 94° East 585 673 41,000  Level Cleveland Center
Wed 05:56:15 PM 42.0542 -80.7514 93° East 585 673 41,000  Level Cleveland Center
Wed 05:57:17 PM 42.0414 -80.5303 94° East 586 674 41,000  Level Cleveland Center
Wed 05:58:20 PM 42.0308 -80.3097 94° East 585 673 41,000  Level Cleveland Center
Wed 05:59:22 PM 42.0169 -80.0878 95° East 587 676 41,000  Level Cleveland Center
Wed 06:00:24 PM 42.0042 -79.8622 94° East 588 677 41,000  Level Cleveland Center
Wed 06:01:26 PM 41.9903 -79.6444 95° East 587 676 41,000  Level Cleveland Center
Wed 06:02:28 PM 41.9733 -79.3831 95° East 587 676 41,000  Level Cleveland Center
Wed 06:03:30 PM 41.9586 -79.1639 95° East 587 676 41,000  Level Cleveland Center
Wed 06:04:32 PM 41.9444 -78.9450 95° East 587 676 41,000  Level Cleveland Center
Wed 06:05:34 PM 41.9292 -78.7247 95° East 588 677 41,000  Level Cleveland Center
Wed 06:06:36 PM 41.9131 -78.5042 96° East 590 679 41,000 -192 Level Cleveland Center
Wed 06:07:39 PM 41.8969 -78.2839 96° East 591 680 40,600 -2,064 Descending Cleveland Center
Wed 06:08:41 PM 41.8778 -78.0219 96° East 590 679 36,700 -2,710 Descending Cleveland Center
Wed 06:09:43 PM 41.8525 -77.8167 99° East 564 649 35,000 -1,063 Descending Cleveland Center
Wed 06:10:17 PM 41.8278 -77.6964 105° East 564 649 35,000  Level New York Center
Wed 06:11:17 PM 41.7725 -77.4989 111° Southeast 562 647 35,000 -50 Level New York Center
Wed 06:12:17 PM 41.7186 -77.3072 111° Southeast 590 679 34,900 -850 Descending New York Center
Wed 06:13:17 PM 41.6650 -77.1019 109° East 595 685 33,300 -1,600 Descending New York Center
Wed 06:14:17 PM 41.6111 -76.8997 110° East 595 685 31,700 -1,900 Descending New York Center
Wed 06:15:17 PM 41.5475 -76.6750 111° Southeast 590 679 29,500 -2,199 Descending New York Center
Wed 06:16:58 PM 41.4661 -76.3714 110° East 566 651 25,800 -2,245 Descending Cleveland Center
Wed 06:18:00 PM 41.4131 -76.1847 111° Southeast 545 627 23,400 -2,565 Descending Cleveland Center
Wed 06:19:02 PM 41.3522 -75.9692 111° Southeast 523 602 20,500 -2,540 Descending Cleveland Center
Wed 06:20:17 PM 41.2956 -75.7664 110° East 512 589 17,600 -2,000 Descending New York Center
Wed 06:21:17 PM 41.2461 -75.6056 112° Southeast 488 562 16,000 -1,450 Descending New York Center
Wed 06:22:17 PM 41.1864 -75.4303 114° Southeast 476 548 14,700 -1,700 Descending New York Center
Wed 06:23:17 PM 41.1417 -75.2922 113° Southeast 447 514 12,600 -2,400 Descending New York Center
Wed 06:24:17 PM 41.1044 -75.1794 114° Southeast 364 419 9,900 -2,550 Descending New York Center
Wed 06:25:17 PM 41.0742 -75.0894 114° Southeast 309 356 7,500 -1,900 Descending New York Center
Wed 06:26:17 PM 41.0467 -74.9886 110° East 294 338 6,100 -950 Descending New York Center
Wed 06:27:17 PM 41.0300 -74.8750 101° East 289 333 5,600 -1,000 Descending New York Center
Wed 06:28:17 PM 41.0311 -74.7786 89° East 276 318 4,100 -850 Descending New York Center
Wed 06:29:17 PM 41.0322 -74.6825 89° East 260 299 3,900 -550 Descending New York Center
Wed 06:30:17 PM 40.9753 -74.6381 149° Southeast 218 251 3,000 -450 Descending New York Center
Wed 06:31:17 PM 40.9011 -74.6144 166° South 246 283 3,000  Level New York Center
Wed 06:32:04 PM 40.8500 -74.6000 168° South 254 292 3,000  Level New York TRACON
Wed 06:33:04 PM 40.7833 -74.5500 150° Southeast 257 296 3,000 -50 Level New York TRACON
Wed 06:34:04 PM 40.7333 -74.4833 135° Southeast 247 284 2,900 -500 Descending New York TRACON
Wed 06:35:04 PM 40.7000 -74.4167 123° Southeast 225 259 2,000 -450 Descending New York TRACON
Wed 06:36:04 PM 40.7000 -74.3500 90° East 214 246 2,000 -50 Level New York TRACON
Wed 06:37:04 PM 40.7167 -74.2667 75° East 206 237 1,900 -250 Descending New York TRACON
Wed 06:38:04 PM 40.7500 -74.2167 49° Northeast 175 201 1,500 -200 Descending New York TRACON
Wed 06:39:04 PM 40.7667 -74.1833 57° Northeast 171 197 1,500 -50 Level New York TRACON
Wed 06:40:04 PM 40.8000 -74.1333 49° Northeast 144 166 1,400 -350 Descending New York TRACON
Wed 06:41:04 PM 40.8167 -74.0833 66° East 130 150 800 -600 Descending New York TRACON
Wed 06:43:00 PM 40.8500 -74.0500 101° East  Level FlightAware Approximate
Wed 06:50:00 PM 40.8501 -74.0608 101° East  Level Estimated

Login

Don't have an account? Register now (free) for customized features, flight alerts, and more!